Lewistown, MT

5:25 AM MDT on July 23, 2014 (GMT -0600)
3/4 mile S of Lewistown (KMTLEWIS1) Elev 4189 ft | 47.04 °N, 109.42 °W | Change Station
Active Advisory: Fire Weather Watch

Current weather conditions updated 2 seconds ago

Clear
Clear
58.7 °F
Feels Like 58.7 °F
N
8.0
Wind Variable Wind from SE
Gusts 12.0 mph

Today is forecast to be Much Warmer than yesterday.

Today
High -- | Low -- °F
--% Chance of Precip.
Yesterday
High -- | Low -- °F
Precip. -- in
5:46 AM 9:01 PM
Waning Crescent, 11% visible
Pressure 30.08 in
Visibility 10.0 miles
Clouds Clear
Dew Point 54 °F
Humidity 83%
Rainfall 0.00 in
Snow Depth 0 in
UV 0 out of 12
Pollen 6.20 out of 12
Air Quality Not available.
Flu Activity Not available.
METAR KLWT 231054Z AUTO 12005KT 10SM CLR 16/12 A3019 RMK AO2 SLP186 T01560122

More Conditions Fewer Conditions

Pressure 30.08 in
Visibility 10.0 miles
Clouds Clear
Dew Point 54 °F
Humidity 83%
Rainfall 0.00 in
Snow Depth 0 in
UV 0 out of 12
Pollen 6.20 out of 12
Air Quality Not available.
Flu Activity Not available.
METAR KLWT 231054Z AUTO 12005KT 10SM CLR 16/12 A3019 RMK AO2 SLP186 T01560122

More Conditions Fewer Conditions

10-Day Weather Forecast

Almanac

Astronomy

Jul. 23, 2014 Rise Set
Actual Time 5:46 AM MDT 9:01 PM MDT
Civil Twilight 5:09 AM MDT 9:38 PM MDT
Nautical Twilight 4:21 AM MDT 10:26 PM MDT
Astronomical Twilight 3:20 AM MDT 11:26 PM MDT
Moon 3:09 AM MDT 6:31 PM MDT
Length of Visible Light 16h 28m
Length of Day
15h 15m
Tomorrow will be 2m 15s shorter.
Waning Crescent, 11% of the Moon is Illuminated
Today
Waning Crescent
Jul 26
New
Aug 3
First Quarter
Aug 10
Full
Aug 17
Last Quarter

Today's Extremes

State Highs State Lows

Community

WunderPhotos

Upload Photos

1,736,560 photos uploaded!

Nearby

Snow Depth

Station Depth Elevation
Crystal Lake 0 in 6050 ft
Daisy Peak 0 in 7600 ft
Spur Park 0 in 8100 ft
Onion Park 0 in 7410 ft
Stringer Creek 0 in 6550 ft

Earthquake Activity

City Distance Mag. Time & Date
No recent earthquake activity has been reported nearby.
Minimum magnitude displayed is 2.5.

Coastal Water Temperatures

Place Temperature
No Stations Reporting

Nearby Weather Stations

Station Location Temp. Dew Point Humidity Wind Precip. Elev Updated Type
3/4 mile S of Lewistown, Lewistown, Mt 58.7 °F 54 °F 83% SE  at  8.0 mph 0.00 in / hr 4189 ft 5:25 AM MDT Rapid Fire
3rd Ave S Lewistown, Lewistown, MT 55.4 °F 54 °F 95% SSE  at  0.0 mph 0.00 in / hr 3927 ft 3:36 AM MDT Rapid Fire
Glengarry, Lewistown, MT 53.5 °F 51 °F 91% SE  at  2.0 mph 0.00 in / hr 4117 ft 5:18 AM MDT Normal
MesoWest MOCCASIN , Moccasin, MT 62 °F 57 °F 82% South  at  8 mph 0.00 in / hr 4255 ft 4:00 AM MDT MADIS
RAWS JUDITH PEAK MT, Hilger, MT 62 °F 47 °F 58% SSE  at  17 mph 0.00 in / hr 6428 ft 4:52 AM MDT MADIS

Show More Stations Show Fewer Stations